createdAt,value
2023-06-19T00:11:59.991Z,20.20
2023-06-19T00:27:06.209Z,20.47
2023-06-19T00:42:11.881Z,20.74
2023-06-19T00:57:17.412Z,20.55
2023-06-19T01:12:29.532Z,20.41
2023-06-19T01:27:35.844Z,20.32
2023-06-19T01:42:43.316Z,20.01
2023-06-19T01:57:48.907Z,19.88
2023-06-19T02:12:54.501Z,19.91
2023-06-19T02:28:00.044Z,19.87
2023-06-19T02:43:05.597Z,19.96
2023-06-19T02:58:12.003Z,19.83
2023-06-19T03:13:17.698Z,19.80
2023-06-19T03:28:23.095Z,19.67
2023-06-19T03:43:28.646Z,19.61
2023-06-19T03:58:34.087Z,19.66
2023-06-19T04:13:40.030Z,19.65
2023-06-19T04:28:45.636Z,19.72
2023-06-19T04:43:51.194Z,19.84
2023-06-19T04:59:00.868Z,20.02
2023-06-19T05:14:06.831Z,20.24
2023-06-19T05:29:12.449Z,20.25
2023-06-19T05:44:18.217Z,20.51
2023-06-19T05:59:24.304Z,20.70
2023-06-19T06:14:29.941Z,20.72
2023-06-19T06:29:35.344Z,20.83
2023-06-19T06:44:40.896Z,21.16
2023-06-19T06:59:46.451Z,21.69
2023-06-19T07:14:55.584Z,22.57
2023-06-19T07:30:01.214Z,22.87
2023-06-19T07:45:07.938Z,23.06
2023-06-19T08:00:15.932Z,25.03
2023-06-19T08:15:21.469Z,27.46
2023-06-19T08:30:27.791Z,28.37
2023-06-19T08:45:33.651Z,29.24
2023-06-19T09:00:39.176Z,30.20
2023-06-19T09:15:44.661Z,31.10
2023-06-19T09:30:58.199Z,31.49
2023-06-19T09:46:04.669Z,30.94
2023-06-19T10:01:10.447Z,31.49
2023-06-19T10:16:25.511Z,31.83
2023-06-19T10:31:32.094Z,31.30
2023-06-19T10:46:39.021Z,30.34
2023-06-19T11:01:47.209Z,30.60
2023-06-19T11:16:52.862Z,29.73
2023-06-19T11:32:12.027Z,29.59
2023-06-19T11:47:20.594Z,29.04
2023-06-19T12:02:26.397Z,28.80
2023-06-19T12:17:32.807Z,28.14
2023-06-19T12:32:38.497Z,27.91
2023-06-19T12:47:44.284Z,28.45
2023-06-19T13:02:50.128Z,28.83
2023-06-19T13:17:56.052Z,29.65
2023-06-19T13:33:03.912Z,30.12
2023-06-19T13:48:10.766Z,31.53
2023-06-19T14:03:16.680Z,31.83
2023-06-19T14:18:22.617Z,32.24
2023-06-19T14:33:28.538Z,30.82
2023-06-19T14:48:34.684Z,31.86
2023-06-19T15:03:40.521Z,31.96
2023-06-19T15:18:47.712Z,31.27
2023-06-19T15:33:53.546Z,31.90
2023-06-19T15:49:00.151Z,32.28
2023-06-19T16:04:06.321Z,31.55
2023-06-19T16:19:12.095Z,32.04
2023-06-19T16:34:17.807Z,31.33
2023-06-19T16:49:23.825Z,30.96
2023-06-19T17:04:29.526Z,30.41
2023-06-19T17:19:35.142Z,30.41
2023-06-19T17:34:40.887Z,30.22
2023-06-19T17:49:46.456Z,29.58
2023-06-19T18:04:52.038Z,29.45
2023-06-19T18:19:57.575Z,29.16
2023-06-19T18:35:03.315Z,28.68
2023-06-19T18:50:12.764Z,27.71
2023-06-19T19:05:18.452Z,27.35
2023-06-19T19:20:24.122Z,27.46
2023-06-19T19:35:30.211Z,27.11
2023-06-19T19:50:35.713Z,26.90
2023-06-19T20:05:41.439Z,26.26
2023-06-19T20:20:47.054Z,25.71
2023-06-19T20:35:52.503Z,25.56
2023-06-19T20:50:58.610Z,24.68
2023-06-19T21:06:04.094Z,24.74
2023-06-19T21:21:09.448Z,24.25
2023-06-19T21:36:15.091Z,23.54
2023-06-19T21:51:20.521Z,23.55
2023-06-19T22:06:26.016Z,23.28
2023-06-19T22:21:31.874Z,22.57
2023-06-19T22:36:37.410Z,22.08
2023-06-19T22:51:43.214Z,22.07
2023-06-19T23:06:49.004Z,21.93
2023-06-19T23:21:55.729Z,21.87
2023-06-19T23:37:01.286Z,21.48
2023-06-19T23:52:08.200Z,21.08
